Time;durP1;ratioP1;P1;durP2;ratioP2;P2;SDS_P1;SDS_P2;PMS_P1;PMS_P2;Temp;Humidity;BMP_temperature;BMP_pressure;BME280_temperature;BME280_humidity;BME280_pressure;Samples;Min_cycle;Max_cycle;Signal;HPM_P1;HPM_P2
2023/07/16 00:01:41;;;;;;;10.50;2.65;;;;;;;15.76;100.00;100854.47;5052159;28;20021;-82
2023/07/16 00:04:06;;;;;;;9.35;2.90;;;;;;;15.85;100.00;100885.91;5053317;28;20025;-81
2023/07/16 00:06:32;;;;;;;7.38;3.03;;;;;;;15.69;100.00;100868.94;5057391;28;20029;-82
2023/07/16 00:08:57;;;;;;;7.75;2.40;;;;;;;15.50;100.00;100851.38;5060038;28;20464;-82
2023/07/16 00:11:22;;;;;;;6.15;2.53;;;;;;;15.59;100.00;100883.66;5057761;28;20036;-81
2023/07/16 00:13:48;;;;;;;8.15;2.70;;;;;;;15.63;100.00;100890.28;5056790;28;20025;-82
2023/07/16 00:16:26;;;;;;;7.70;2.63;;;;;;;15.03;100.00;100782.47;5469980;22;20048;-81
2023/07/16 00:18:51;;;;;;;9.60;2.88;;;;;;;14.78;100.00;100720.47;5096308;28;20356;-81
2023/07/16 00:21:29;;;;;;;8.52;2.85;;;;;;;14.82;100.00;100733.06;5095906;28;20032;-81
2023/07/16 00:24:07;;;;;;;7.55;2.67;;;;;;;14.81;100.00;100723.63;5095987;28;20016;-81
2023/07/16 00:26:41;;;;;;;7.43;2.90;;;;;;;15.47;100.00;100846.44;5096104;28;20421;-81
2023/07/16 00:29:15;;;;;;;7.32;2.75;;;;;;;15.34;100.00;100829.38;5096002;28;20024;-82
2023/07/16 00:32:01;;;;;;;9.80;2.95;;;;;;;14.64;100.00;100716.38;5097717;28;20056;-82
2023/07/16 00:34:33;;;;;;;8.30;2.70;;;;;;;14.65;100.00;100712.84;5099029;28;20020;-82
2023/07/16 00:37:01;;;;;;;7.13;2.67;;;;;;;15.06;100.00;100792.66;5104687;28;20039;-82
2023/07/16 00:39:33;;;;;;;6.35;2.72;;;;;;;15.04;100.00;100791.91;5050637;28;20031;-81
2023/07/16 00:42:16;;;;;;;7.80;2.60;;;;;;;14.57;100.00;100729.06;5098482;28;20027;-82
2023/07/16 00:48:11;;;;;;;7.70;2.70;;;;;;;15.21;100.00;100824.34;5097103;28;20058;-81
2023/07/16 00:50:39;;;;;;;8.90;2.40;;;;;;;15.42;100.00;100873.78;5095454;28;20054;-81
2023/07/16 00:53:08;;;;;;;8.30;2.95;;;;;;;15.23;100.00;100852.84;5095181;28;20065;-81
2023/07/16 00:55:35;;;;;;;6.47;2.47;;;;;;;15.49;100.00;100904.41;5095527;28;20361;-81
2023/07/16 00:58:05;;;;;;;7.75;2.45;;;;;;;15.38;100.00;100888.03;5095401;28;20024;-81
2023/07/16 01:00:35;;;;;;;7.82;2.50;;;;;;;15.34;100.00;100886.59;5095140;28;20045;-81
2023/07/16 01:03:05;;;;;;;7.72;2.58;;;;;;;15.15;100.00;100874.31;5095251;28;20020;-81
2023/07/16 01:06:00;;;;;;;6.68;2.55;;;;;;;15.19;100.00;100886.09;5094672;28;20475;-81
2023/07/16 01:08:38;;;;;;;10.43;2.92;;;;;;;15.19;100.00;100906.91;5095144;28;20028;-81
2023/07/16 01:11:04;;;;;;;5.90;2.25;;;;;;;15.14;100.00;100909.91;5095001;28;20053;-81
2023/07/16 01:13:30;;;;;;;10.60;3.45;;;;;;;14.92;100.00;100897.75;5094742;28;20039;-81
2023/07/16 01:15:55;;;;;;;8.90;2.95;;;;;;;14.89;100.00;100886.78;5094732;28;20044;-81
2023/07/16 01:18:21;;;;;;;9.88;2.97;;;;;;;14.98;100.00;100900.84;5075949;28;20134;-81
2023/07/16 01:20:46;;;;;;;10.02;2.60;;;;;;;14.90;100.00;100885.84;5094929;28;20098;-83
2023/07/16 01:23:37;;;;;;;8.90;3.15;;;;;;;14.96;100.00;100900.97;5094904;28;20028;-81
2023/07/16 01:26:18;;;;;;;8.85;3.13;;;;;;;14.88;100.00;100903.34;5076592;28;20024;-81
2023/07/16 01:29:07;;;;;;;11.60;3.00;;;;;;;14.85;100.00;100898.41;5094883;28;20066;-82
2023/07/16 02:03:42;;;;;;;8.80;2.88;;;;;;;14.64;100.00;100901.72;6171944;23;20413;-81
2023/07/16 02:06:08;;;;;;;8.98;3.40;;;;;;;14.52;100.00;100891.47;4953900;29;20083;-80
2023/07/16 02:08:33;;;;;;;10.52;3.28;;;;;;;14.43;100.00;100881.78;4954279;29;20043;-80
2023/07/16 02:10:58;;;;;;;7.50;2.72;;;;;;;14.32;100.00;100867.84;4955703;29;20510;-80
2023/07/16 02:13:24;;;;;;;10.13;3.40;;;;;;;14.35;100.00;100880.63;4955457;29;20050;-81
2023/07/16 02:15:49;;;;;;;9.43;3.80;;;;;;;14.34;100.00;100878.13;4955397;29;20073;-83
2023/07/16 02:18:14;;;;;;;9.02;3.55;;;;;;;14.33;100.00;100882.50;4937987;29;20039;-80
2023/07/16 02:20:40;;;;;;;9.10;3.38;;;;;;;14.34;100.00;100868.56;4955257;29;20042;-81
2023/07/16 02:23:05;;;;;;;13.18;3.30;;;;;;;14.37;100.00;100874.47;4955336;29;20023;-80
2023/07/16 02:25:32;;;;;;;10.75;3.63;;;;;;;14.47;100.00;100891.84;4955210;29;20028;-82
2023/07/16 02:27:57;;;;;;;10.40;3.85;;;;;;;14.38;100.00;100886.53;4954667;28;20066;-81
2023/07/16 02:30:22;;;;;;;10.55;3.78;;;;;;;14.17;100.00;100853.47;4955377;29;20066;-81
2023/07/16 02:32:48;;;;;;;9.07;3.58;;;;;;;14.45;100.00;100905.88;4955372;29;20118;-81
2023/07/16 02:35:14;;;;;;;8.90;3.70;;;;;;;14.46;100.00;100912.75;4955042;29;20059;-81
2023/07/16 02:37:39;;;;;;;8.60;3.45;;;;;;;14.40;100.00;100895.00;4955276;29;20122;-82
2023/07/16 02:40:06;;;;;;;9.63;3.55;;;;;;;14.36;100.00;100878.84;4937529;29;20046;-81
2023/07/16 02:42:31;;;;;;;8.20;3.65;;;;;;;14.60;100.00;100912.50;4955340;29;20379;-81
2023/07/16 02:44:57;;;;;;;8.43;3.58;;;;;;;14.62;100.00;100919.22;4955259;29;20027;-82
2023/07/16 02:47:22;;;;;;;13.00;3.50;;;;;;;14.67;100.00;100913.69;4954892;29;20031;-82
2023/07/16 02:49:51;;;;;;;8.40;3.55;;;;;;;14.61;100.00;100911.56;4955036;29;20034;-81
2023/07/16 02:52:16;;;;;;;9.82;3.63;;;;;;;14.65;100.00;100918.19;4954885;29;20035;-81
2023/07/16 02:54:42;;;;;;;8.57;3.25;;;;;;;14.64;100.00;100919.91;4954742;29;20475;-81
2023/07/16 02:57:07;;;;;;;10.55;4.10;;;;;;;14.53;100.00;100899.16;4954713;29;20038;-82
2023/07/16 02:59:32;;;;;;;11.90;3.55;;;;;;;14.51;100.00;100895.03;4955014;29;20038;-82
2023/07/16 03:01:58;;;;;;;8.65;3.30;;;;;;;14.64;100.00;100922.53;4955111;29;20050;-80
2023/07/16 03:04:23;;;;;;;10.07;3.53;;;;;;;14.55;100.00;100910.28;4954799;29;20055;-80
2023/07/16 03:06:48;;;;;;;10.07;3.75;;;;;;;14.62;100.00;100928.78;4954633;29;20043;-80
2023/07/16 03:09:14;;;;;;;8.43;3.58;;;;;;;14.50;100.00;100904.59;4954596;29;20019;-81
2023/07/16 03:11:39;;;;;;;8.73;3.42;;;;;;;14.57;100.00;100925.75;4954489;29;20049;-81
2023/07/16 03:14:04;;;;;;;10.20;3.42;;;;;;;14.57;100.00;100929.16;4954731;29;20031;-80
2023/07/16 03:16:29;;;;;;;11.60;4.47;;;;;;;14.43;100.00;100903.38;4954856;29;20039;-82
2023/07/16 03:18:55;;;;;;;7.63;3.63;;;;;;;14.58;100.00;100932.59;4954463;29;20077;-81
2023/07/16 03:21:20;;;;;;;7.68;3.33;;;;;;;14.57;100.00;100931.78;4954620;29;20023;-81
2023/07/16 03:23:45;;;;;;;7.93;3.88;;;;;;;14.58;100.00;100936.00;4954473;29;20110;-81
2023/07/16 03:26:11;;;;;;;8.77;4.03;;;;;;;14.43;100.00;100916.38;4954505;29;20050;-81
2023/07/16 03:28:36;;;;;;;8.88;4.03;;;;;;;14.57;100.00;100936.97;4954430;29;20035;-82
2023/07/16 03:31:02;;;;;;;9.90;4.13;;;;;;;14.56;100.00;100947.47;4954665;29;20102;-81
2023/07/16 03:33:27;;;;;;;8.52;3.88;;;;;;;14.52;100.00;100946.06;4954747;29;20480;-82
2023/07/16 03:35:52;;;;;;;13.93;4.18;;;;;;;14.43;100.00;100936.34;4937151;29;20469;-81
2023/07/16 03:38:18;;;;;;;11.15;4.38;;;;;;;14.36;100.00;100930.81;4954350;28;20110;-81
2023/07/16 03:40:47;;;;;;;11.30;4.50;;;;;;;14.32;100.00;100934.56;4958406;29;20023;-80
2023/07/16 03:43:13;;;;;;;8.18;4.13;;;;;;;14.44;100.00;100957.00;4940860;29;20042;-80
2023/07/16 03:45:38;;;;;;;9.52;4.10;;;;;;;14.44;100.00;100953.56;4958094;29;20423;-80
2023/07/16 03:48:04;;;;;;;8.32;4.32;;;;;;;14.42;100.00;100953.69;4958328;29;20026;-81
2023/07/16 03:50:29;;;;;;;10.10;4.55;;;;;;;14.41;100.00;100956.41;4958364;29;20039;-81
2023/07/16 03:52:55;;;;;;;11.60;4.50;;;;;;;14.38;100.00;100970.47;4958097;29;20034;-81
2023/07/16 03:55:20;;;;;;;10.38;4.63;;;;;;;14.38;100.00;100967.88;4958035;29;20031;-81
2023/07/16 03:57:45;;;;;;;11.85;5.00;;;;;;;14.36;100.00;100974.97;4957999;29;20031;-80
2023/07/16 04:00:11;;;;;;;7.82;4.40;;;;;;;14.15;100.00;100950.59;4958096;29;20467;-80
2023/07/16 04:02:36;;;;;;;11.63;4.32;;;;;;;14.23;100.00;100963.84;4957902;29;20126;-80
2023/07/16 04:05:02;;;;;;;8.05;4.40;;;;;;;14.25;100.00;100978.34;4957748;29;20043;-79
2023/07/16 04:07:28;;;;;;;12.43;4.72;;;;;;;14.30;100.00;100985.81;4958071;29;20027;-80
2023/07/16 04:09:53;;;;;;;10.95;4.35;;;;;;;14.27;100.00;100983.47;4957907;29;20431;-80
2023/07/16 04:12:18;;;;;;;10.82;4.32;;;;;;;14.29;100.00;100986.75;4957709;29;20081;-80
2023/07/16 04:14:44;;;;;;;9.43;4.22;;;;;;;14.30;100.00;100991.00;4957697;29;20090;-80
2023/07/16 04:17:09;;;;;;;11.93;4.70;;;;;;;14.27;100.00;100986.88;4957772;29;20060;-81
2023/07/16 04:19:35;;;;;;;11.95;4.68;;;;;;;14.29;100.00;100989.38;4957563;29;20034;-81
2023/07/16 04:22:00;;;;;;;10.18;4.28;;;;;;;14.32;100.00;100996.91;4940294;29;20035;-81
2023/07/16 04:24:28;;;;;;;11.90;5.40;;;;;;;14.11;100.00;100960.41;4957650;29;20494;-80
2023/07/16 04:26:54;;;;;;;9.65;4.50;;;;;;;14.40;100.00;101006.72;4940053;29;20122;-80
2023/07/16 04:29:19;;;;;;;10.85;4.30;;;;;;;14.41;100.00;101009.22;4957475;29;20547;-81
2023/07/16 04:31:45;;;;;;;8.68;4.30;;;;;;;14.44;100.00;101010.75;4957447;29;20379;-82
2023/07/16 04:34:10;;;;;;;13.05;4.80;;;;;;;14.47;100.00;101008.78;4957259;29;20039;-80
2023/07/16 04:36:36;;;;;;;9.57;5.10;;;;;;;14.51;99.24;101025.78;4957474;29;20019;-81
2023/07/16 04:39:01;;;;;;;13.52;4.57;;;;;;;14.55;99.86;101026.38;4957377;29;20110;-81
2023/07/16 04:41:27;;;;;;;9.98;4.88;;;;;;;14.29;98.96;100990.19;4957229;29;20030;-83
2023/07/16 04:43:52;;;;;;;12.35;4.72;;;;;;;14.58;99.35;101034.78;4956861;29;20094;-81
2023/07/16 04:46:18;;;;;;;13.13;5.47;;;;;;;14.53;97.24;101029.09;4956901;29;20023;-81
2023/07/16 04:48:43;;;;;;;12.77;4.63;;;;;;;14.57;97.40;101035.72;4939771;29;20031;-80
2023/07/16 04:51:08;;;;;;;9.63;4.68;;;;;;;14.59;96.31;101039.03;4956693;28;20027;-80
2023/07/16 04:53:34;;;;;;;10.00;4.53;;;;;;;14.57;97.08;101035.72;4956978;29;20031;-80
2023/07/16 04:55:59;;;;;;;13.05;5.28;;;;;;;14.63;96.47;101047.41;4957157;29;20034;-81
2023/07/16 04:58:24;;;;;;;11.02;5.10;;;;;;;14.66;97.77;101051.56;4956981;29;20032;-81
2023/07/16 05:00:49;;;;;;;9.55;4.65;;;;;;;14.64;96.75;101041.25;4956705;29;20460;-79
2023/07/16 05:03:15;;;;;;;12.80;4.82;;;;;;;14.71;97.34;101057.22;4956855;29;20092;-80
2023/07/16 05:05:40;;;;;;;10.10;4.88;;;;;;;14.49;96.12;101012.09;4956662;29;20047;-82
2023/07/16 05:08:05;;;;;;;9.20;4.68;;;;;;;14.74;96.88;101054.38;4956934;29;20062;-82
2023/07/16 05:10:31;;;;;;;11.48;5.68;;;;;;;14.81;97.23;101059.00;4956549;29;20031;-82
2023/07/16 05:12:56;;;;;;;11.15;5.00;;;;;;;14.91;97.62;101038.31;4956669;29;20027;-80
2023/07/16 05:15:21;;;;;;;10.70;4.60;;;;;;;15.11;99.53;100997.72;4956525;29;20106;-81
2023/07/16 05:17:47;;;;;;;11.05;4.47;;;;;;;15.82;96.53;101053.59;4956511;29;20159;-82
2023/07/16 05:20:12;;;;;;;9.55;4.45;;;;;;;16.06;94.03;101042.97;4955283;29;20114;-81
2023/07/16 05:22:37;;;;;;;12.10;5.10;;;;;;;16.16;91.29;101020.41;4956079;29;20042;-79
2023/07/16 05:25:03;;;;;;;12.65;4.82;;;;;;;16.45;86.58;101046.66;4956328;29;20023;-81
2023/07/16 05:27:28;;;;;;;11.93;4.38;;;;;;;16.68;87.02;101021.25;4938825;29;20035;-82
2023/07/16 05:29:54;;;;;;;11.57;4.80;;;;;;;17.26;87.78;101037.06;4956344;29;20106;-82
2023/07/16 05:32:19;;;;;;;10.93;5.20;;;;;;;17.80;80.34;101064.53;4956173;29;20038;-81
2023/07/16 05:34:45;;;;;;;10.95;4.35;;;;;;;18.46;76.60;101072.41;4956593;29;20058;-81
2023/07/16 05:37:11;;;;;;;12.68;4.93;;;;;;;19.03;72.93;101072.38;4956312;29;20054;-80
2023/07/16 05:39:37;;;;;;;11.00;4.32;;;;;;;19.45;74.80;101047.31;4956027;29;20027;-80
2023/07/16 05:42:02;;;;;;;8.60;4.72;;;;;;;20.23;70.03;101057.97;4956018;29;20019;-78
2023/07/16 05:44:28;;;;;;;9.15;4.63;;;;;;;20.78;65.35;101077.84;4955970;29;20368;-78
2023/07/16 05:46:54;;;;;;;11.55;4.43;;;;;;;20.90;63.57;101052.97;4956129;29;20210;-78
2023/07/16 05:49:19;;;;;;;9.73;4.97;;;;;;;21.29;60.50;101052.47;4955892;29;20102;-78
2023/07/16 05:51:44;;;;;;;9.35;4.70;;;;;;;22.05;59.34;101068.78;4956082;29;20035;-78
2023/07/16 05:54:10;;;;;;;9.88;4.68;;;;;;;22.56;56.44;101043.06;4955910;29;20024;-77
2023/07/16 05:56:35;;;;;;;10.27;4.97;;;;;;;23.33;55.23;101082.75;4954220;29;20058;-78
2023/07/16 05:59:00;;;;;;;9.18;4.45;;;;;;;23.83;52.91;101078.84;4956503;29;20030;-78
2023/07/16 06:01:26;;;;;;;9.88;4.75;;;;;;;23.61;52.15;101055.94;4955503;28;20054;-79
2023/07/16 06:03:51;;;;;;;9.25;4.93;;;;;;;23.71;50.70;101091.63;4955318;29;20554;-77
2023/07/16 06:06:16;;;;;;;11.68;4.28;;;;;;;24.13;50.70;101089.47;4955627;29;20462;-77
2023/07/16 06:08:42;;;;;;;11.48;4.40;;;;;;;24.13;51.25;101063.06;4955506;29;20023;-77
2023/07/16 06:11:07;;;;;;;8.52;4.30;;;;;;;24.46;49.89;101085.53;4955580;29;20050;-76
2023/07/16 06:13:32;;;;;;;8.98;4.53;;;;;;;24.40;48.45;101065.16;4955352;29;20039;-77
2023/07/16 06:15:58;;;;;;;10.50;4.57;;;;;;;24.33;48.78;101055.50;4955318;29;20487;-78
2023/07/16 06:18:23;;;;;;;9.23;4.38;;;;;;;24.86;48.30;101084.25;4955326;29;20090;-78
2023/07/16 06:20:50;;;;;;;10.02;4.90;;;;;;;24.87;46.20;101088.53;4955097;29;20042;-78
2023/07/16 06:23:16;;;;;;;8.68;4.30;;;;;;;25.04;46.62;101073.31;4955404;29;20106;-77
2023/07/16 06:25:46;;;;;;;11.80;4.38;;;;;;;25.29;46.70;101084.41;4954872;29;20027;-76
2023/07/16 06:28:12;;;;;;;8.57;4.72;;;;;;;25.54;45.69;101081.38;4955239;29;20035;-78
2023/07/16 06:30:37;;;;;;;8.93;5.00;;;;;;;25.65;44.79;101108.16;4954940;29;20055;-77
2023/07/16 06:33:03;;;;;;;14.60;5.32;;;;;;;25.67;44.51;101095.56;4955221;29;20122;-77
2023/07/16 06:35:28;;;;;;;9.00;4.45;;;;;;;25.96;43.72;101101.78;4953712;29;20106;-78
2023/07/16 06:37:53;;;;;;;10.00;4.93;;;;;;;26.14;43.90;101101.28;4954972;29;20031;-77
2023/07/16 06:40:18;;;;;;;8.77;4.43;;;;;;;26.40;42.61;101111.28;4954699;29;20035;-77
2023/07/16 06:42:49;;;;;;;11.02;4.85;;;;;;;26.06;43.16;101082.91;4954891;29;20368;-77
2023/07/16 06:45:17;;;;;;;8.38;4.43;;;;;;;26.25;42.50;101120.13;4937894;29;20073;-78
2023/07/16 06:47:42;;;;;;;9.18;4.70;;;;;;;26.07;42.80;101125.06;4954867;29;20120;-77
2023/07/16 06:50:08;;;;;;;11.93;4.95;;;;;;;26.14;42.15;101120.63;4954801;29;20478;-78
2023/07/16 06:52:34;;;;;;;8.40;4.50;;;;;;;26.56;43.49;101116.28;4955147;29;20361;-78
2023/07/16 06:54:59;;;;;;;8.73;4.63;;;;;;;26.88;41.58;101120.13;4954932;29;20031;-78
2023/07/16 06:57:24;;;;;;;10.13;5.20;;;;;;;26.99;41.30;101116.91;4954792;29;20371;-78
2023/07/16 06:59:50;;;;;;;10.13;5.07;;;;;;;27.24;40.59;101119.91;4954890;29;20471;-78
2023/07/16 07:02:16;;;;;;;10.00;5.03;;;;;;;27.04;40.39;101101.28;4954882;29;20020;-78
2023/07/16 07:04:41;;;;;;;8.93;4.40;;;;;;;27.39;40.52;101125.88;4954354;29;20098;-78
2023/07/16 07:07:07;;;;;;;10.73;4.82;;;;;;;26.96;41.04;101122.63;4954499;29;20039;-78
2023/07/16 07:09:32;;;;;;;10.25;4.97;;;;;;;26.83;41.36;101141.09;4954739;29;20078;-77
2023/07/16 07:11:58;;;;;;;8.93;4.57;;;;;;;27.04;41.42;101141.03;4954707;29;20023;-78
2023/07/16 07:14:23;;;;;;;12.50;5.30;;;;;;;26.99;40.36;101140.78;4954464;28;20452;-78
2023/07/16 07:16:48;;;;;;;10.30;5.10;;;;;;;27.08;40.29;101122.91;4954485;29;20054;-77
2023/07/16 07:19:14;;;;;;;9.90;4.90;;;;;;;27.31;40.68;101127.88;4954611;29;20035;-77
2023/07/16 07:21:39;;;;;;;10.40;5.05;;;;;;;27.55;40.42;101147.75;4954377;29;20062;-77
2023/07/16 07:24:04;;;;;;;9.23;4.90;;;;;;;27.41;40.65;101142.38;4954577;29;20446;-77
2023/07/16 07:26:30;;;;;;;11.38;5.30;;;;;;;27.43;39.58;101153.63;4954288;29;20027;-77
2023/07/16 07:28:55;;;;;;;7.93;4.57;;;;;;;27.60;39.52;101134.69;4954414;29;20035;-77
2023/07/16 07:31:20;;;;;;;10.27;5.13;;;;;;;27.50;39.68;101155.47;4954477;29;20039;-77
2023/07/16 07:33:46;;;;;;;10.95;5.18;;;;;;;27.78;39.09;101142.91;4937229;29;20030;-77
2023/07/16 07:36:11;;;;;;;10.10;5.15;;;;;;;27.61;39.89;101157.53;4954287;29;20033;-77
2023/07/16 07:38:37;;;;;;;9.98;5.38;;;;;;;27.78;39.56;101153.53;4954159;29;20043;-77
2023/07/16 07:41:06;;;;;;;9.13;5.05;;;;;;;27.40;40.18;101161.16;4954686;29;20452;-79
2023/07/16 07:43:31;;;;;;;10.02;4.80;;;;;;;26.45;42.00;101152.09;4953349;29;20078;-76
2023/07/16 07:45:56;;;;;;;8.30;4.88;;;;;;;25.22;45.48;101144.28;4955596;29;20035;-75
2023/07/16 07:48:22;;;;;;;11.13;5.47;;;;;;;23.99;47.45;101160.50;4952624;29;20064;-77
2023/07/16 07:50:47;;;;;;;9.38;5.53;;;;;;;22.79;51.08;101127.41;4953982;29;20046;-76
2023/07/16 07:53:14;;;;;;;10.90;5.65;;;;;;;22.33;53.11;101160.56;4954302;29;20027;-75
2023/07/16 07:55:40;;;;;;;13.07;6.47;;;;;;;21.68;55.57;101165.72;4953815;29;20023;-76
2023/07/16 07:58:05;;;;;;;12.02;5.70;;;;;;;21.07;56.50;101111.63;4954175;29;20042;-76
2023/07/16 08:00:30;;;;;;;12.13;5.72;;;;;;;21.12;58.18;101159.22;4954103;29;20037;-77
2023/07/16 08:02:56;;;;;;;10.90;5.68;;;;;;;21.03;59.17;101145.22;4954023;29;20057;-75
2023/07/16 08:05:21;;;;;;;11.68;6.15;;;;;;;21.02;59.96;101148.84;4953934;29;20047;-77
2023/07/16 08:07:47;;;;;;;10.85;5.15;;;;;;;21.06;59.02;101147.56;4953865;29;20038;-77
2023/07/16 08:10:12;;;;;;;11.48;6.22;;;;;;;21.22;60.76;101169.59;4953867;29;20062;-77
2023/07/16 08:12:38;;;;;;;10.73;5.55;;;;;;;21.49;59.47;101164.16;4953924;29;20472;-77
2023/07/16 08:15:04;;;;;;;11.27;5.95;;;;;;;21.44;58.60;101167.28;4954148;29;20046;-77
2023/07/16 08:17:29;;;;;;;9.40;5.75;;;;;;;21.15;60.40;101151.06;4950397;29;20118;-76
2023/07/16 08:19:54;;;;;;;11.73;6.07;;;;;;;21.13;58.86;101174.81;4936339;29;20453;-74
2023/07/16 08:22:20;;;;;;;11.98;5.88;;;;;;;21.03;59.51;101178.53;4953934;29;20446;-76
2023/07/16 08:24:45;;;;;;;11.32;6.18;;;;;;;20.98;59.80;101162.44;4954576;28;20039;-76
2023/07/16 08:27:10;;;;;;;12.35;5.50;;;;;;;21.00;59.84;101165.72;4957196;29;20110;-76
2023/07/16 08:29:36;;;;;;;13.98;6.07;;;;;;;21.10;60.99;101176.94;4957609;29;20104;-76
2023/07/16 08:32:03;;;;;;;12.27;6.55;;;;;;;20.80;59.66;101149.38;4957120;29;20058;-76
2023/07/16 08:34:28;;;;;;;12.80;6.03;;;;;;;21.05;60.99;101173.97;4940063;29;20126;-74
2023/07/16 08:36:53;;;;;;;9.82;5.47;;;;;;;20.92;60.25;101163.88;4957138;29;20106;-75
2023/07/16 08:39:20;;;;;;;10.73;5.75;;;;;;;21.06;60.79;101175.63;4939852;29;20027;-75
2023/07/16 08:41:46;;;;;;;11.18;6.03;;;;;;;21.17;61.69;101180.59;4957130;29;20037;-76
2023/07/16 08:44:12;;;;;;;10.95;5.75;;;;;;;21.33;59.79;101164.91;4957244;29;20035;-76
2023/07/16 08:46:39;;;;;;;10.25;5.65;;;;;;;21.64;59.61;101161.75;4957067;29;20036;-76
2023/07/16 08:49:07;;;;;;;9.25;5.30;;;;;;;21.67;57.25;101156.19;4956972;29;20468;-76
2023/07/16 08:51:34;;;;;;;13.18;5.85;;;;;;;21.84;57.83;101164.94;4957089;29;20468;-77
2023/07/16 08:54:00;;;;;;;10.90;5.40;;;;;;;21.97;58.44;101171.34;4956757;29;20173;-80
2023/07/16 08:56:26;;;;;;;11.48;5.47;;;;;;;22.13;58.29;101189.00;4956880;29;20134;-79
2023/07/16 08:58:57;;;;;;;12.10;6.05;;;;;;;22.24;57.89;101186.03;4956666;29;20038;-78
2023/07/16 09:01:23;;;;;;;9.25;5.05;;;;;;;22.46;57.95;101152.97;4939735;29;20031;-77
2023/07/16 09:03:48;;;;;;;10.80;5.28;;;;;;;22.61;56.59;101185.53;4956877;29;20373;-77
2023/07/16 09:06:14;;;;;;;10.93;5.20;;;;;;;22.54;56.86;101194.25;4956386;29;20519;-76
2023/07/16 09:08:39;;;;;;;10.35;4.57;;;;;;;22.14;57.16;101160.88;4956615;29;20038;-77
2023/07/16 09:11:04;;;;;;;10.35;5.07;;;;;;;22.13;57.28;101204.78;4956712;29;20122;-75
2023/07/16 09:13:30;;;;;;;10.25;5.35;;;;;;;21.80;57.06;101187.25;4956466;29;20066;-74
2023/07/16 09:15:57;;;;;;;9.65;5.28;;;;;;;21.73;57.82;101192.34;4956730;29;20023;-77
2023/07/16 09:18:24;;;;;;;10.75;5.32;;;;;;;21.36;58.10;101190.91;4956464;29;20035;-77
2023/07/16 09:20:57;;;;;;;10.90;5.13;;;;;;;21.44;59.57;101204.06;4939229;29;20066;-76
2023/07/16 09:23:26;;;;;;;11.63;5.10;;;;;;;21.47;58.54;101203.75;4956334;29;20464;-75
2023/07/16 09:25:53;;;;;;;13.70;5.70;;;;;;;21.29;59.11;101179.38;4956393;29;20023;-75
2023/07/16 09:28:19;;;;;;;11.50;5.13;;;;;;;21.52;58.86;101215.56;4956176;29;20064;-75
2023/07/16 09:30:45;;;;;;;11.13;5.13;;;;;;;21.62;60.63;101201.31;4956342;29;20035;-75
2023/07/16 09:33:14;;;;;;;11.57;5.38;;;;;;;21.69;59.25;101212.03;4956246;29;20426;-74
2023/07/16 09:35:40;;;;;;;8.77;4.93;;;;;;;21.62;58.49;101217.09;4956171;28;20063;-76
2023/07/16 09:38:07;;;;;;;12.65;5.68;;;;;;;21.49;58.10;101195.69;4938795;29;20078;-75
2023/07/16 09:40:32;;;;;;;9.80;5.28;;;;;;;21.53;57.49;101207.53;4956079;29;20054;-76
2023/07/16 09:42:58;;;;;;;10.45;5.22;;;;;;;21.64;57.73;101198.56;4955750;29;20031;-73
2023/07/16 09:45:23;;;;;;;10.32;5.60;;;;;;;21.97;57.82;101223.13;4956025;29;20032;-74
2023/07/16 09:47:49;;;;;;;8.90;5.35;;;;;;;22.20;57.75;101194.41;4956032;29;20081;-73
2023/07/16 09:50:15;;;;;;;13.82;5.43;;;;;;;22.44;55.38;101212.84;4955901;29;20474;-73
2023/07/16 09:52:42;;;;;;;9.35;5.05;;;;;;;22.42;54.31;101220.09;4955822;29;20054;-76
2023/07/16 09:55:09;;;;;;;9.90;5.53;;;;;;;22.21;54.92;101235.50;4955878;29;20123;-76
2023/07/16 09:57:38;;;;;;;9.93;4.95;;;;;;;22.02;55.48;101232.19;4955880;29;20442;-76
2023/07/16 10:00:11;;;;;;;12.93;5.72;;;;;;;21.86;56.63;101219.00;4955778;29;20023;-74
2023/07/16 10:02:37;;;;;;;10.27;5.50;;;;;;;22.21;56.76;101246.84;4955801;29;20031;-76
2023/07/16 10:05:19;;;;;;;11.18;5.10;;;;;;;22.46;56.44;101226.66;4955611;29;20143;-74
2023/07/16 10:07:52;;;;;;;10.15;4.88;;;;;;;22.78;54.96;101235.53;4955537;29;20471;-80
2023/07/16 10:10:18;;;;;;;11.02;4.93;;;;;;;23.01;54.77;101240.94;4955623;29;20031;-77
2023/07/16 10:12:56;;;;;;;9.27;4.70;;;;;;;23.11;54.37;101238.97;4955360;29;20472;-73
2023/07/16 10:15:29;;;;;;;10.52;5.05;;;;;;;23.31;54.46;101237.59;4955468;29;20023;-78
2023/07/16 10:17:55;;;;;;;10.80;4.70;;;;;;;23.38;53.61;101238.53;4955141;29;20031;-74
2023/07/16 10:20:33;;;;;;;10.90;5.10;;;;;;;23.14;53.71;101247.34;4955306;29;20395;-74
2023/07/16 10:23:11;;;;;;;8.48;4.95;;;;;;;22.79;53.75;101234.53;4955348;29;20255;-75
2023/07/16 10:25:36;;;;;;;9.75;5.20;;;;;;;22.74;54.34;101245.59;4955357;29;20031;-74
2023/07/16 10:28:02;;;;;;;8.32;4.85;;;;;;;22.94;52.84;101256.63;4955006;29;20037;-73
2023/07/16 10:30:27;;;;;;;8.60;4.82;;;;;;;22.89;52.86;101261.53;4955193;29;20031;-76
2023/07/16 10:32:53;;;;;;;9.77;4.38;;;;;;;22.81;52.59;101265.00;4955104;29;20058;-74
2023/07/16 10:35:19;;;;;;;9.68;4.60;;;;;;;22.72;53.06;101268.63;4955170;29;20027;-75
2023/07/16 10:37:44;;;;;;;11.10;4.53;;;;;;;22.60;53.23;101267.28;4954947;29;20356;-74
2023/07/16 10:40:11;;;;;;;8.52;4.55;;;;;;;22.63;53.78;101266.16;4955007;29;20115;-74
2023/07/16 10:42:37;;;;;;;9.52;4.85;;;;;;;22.80;53.28;101267.78;4954916;29;20019;-73
2023/07/16 10:45:04;;;;;;;10.23;4.82;;;;;;;23.03;53.99;101265.34;4955008;29;20030;-74
2023/07/16 10:47:33;;;;;;;10.00;4.78;;;;;;;23.31;52.93;101271.03;4954362;28;20102;-76
2023/07/16 10:49:59;;;;;;;11.35;4.75;;;;;;;23.24;51.47;101268.25;4954710;29;20024;-74
2023/07/16 10:52:25;;;;;;;8.00;3.92;;;;;;;23.24;52.56;101272.69;4954677;29;20538;-74
2023/07/16 10:54:54;;;;;;;6.28;3.78;;;;;;;23.41;51.72;101269.03;4955007;29;20379;-74
2023/07/16 10:57:21;;;;;;;9.23;4.30;;;;;;;23.12;51.27;101267.78;4954660;29;20059;-73
2023/07/16 10:59:47;;;;;;;9.35;4.10;;;;;;;22.90;52.32;101281.63;4954624;29;20426;-73
2023/07/16 11:02:14;;;;;;;11.25;4.47;;;;;;;22.44;52.37;101275.19;4954613;29;20073;-74
2023/07/16 11:04:40;;;;;;;7.78;4.20;;;;;;;22.01;53.15;101269.13;4954629;29;20038;-72
2023/07/16 11:07:13;;;;;;;9.35;4.30;;;;;;;21.65;54.19;101287.75;4954696;29;20042;-74
2023/07/16 11:09:50;;;;;;;8.35;4.28;;;;;;;21.50;55.66;101297.19;4954688;29;20027;-73
2023/07/16 11:12:19;;;;;;;10.60;4.95;;;;;;;21.32;55.85;101297.25;4954542;29;20031;-74
2023/07/16 11:14:48;;;;;;;8.77;4.18;;;;;;;21.44;55.50;101298.66;4954260;29;20023;-73
2023/07/16 11:17:14;;;;;;;9.85;4.43;;;;;;;21.72;55.47;101298.44;4954482;29;20019;-73
2023/07/16 11:19:42;;;;;;;8.77;4.07;;;;;;;21.87;56.85;101296.06;4954609;29;20045;-73
2023/07/16 11:22:08;;;;;;;8.88;4.78;;;;;;;21.98;54.09;101280.81;4954589;29;20390;-74
2023/07/16 11:24:38;;;;;;;11.95;4.93;;;;;;;22.31;54.26;101305.41;4954429;29;20103;-74
2023/07/16 11:27:03;;;;;;;8.57;4.35;;;;;;;22.50;54.00;101319.25;4954445;29;20039;-73
2023/07/16 11:29:36;;;;;;;9.65;4.45;;;;;;;22.85;53.96;101305.00;4954122;29;20027;-74
2023/07/16 11:32:01;;;;;;;8.15;4.03;;;;;;;22.88;52.32;101284.44;4954549;29;20448;-73
2023/07/16 11:34:27;;;;;;;8.38;4.15;;;;;;;22.91;53.32;101293.84;4954291;29;20066;-74
2023/07/16 11:36:52;;;;;;;9.90;4.53;;;;;;;23.07;52.87;101314.88;4954432;29;20038;-74
2023/07/16 11:39:18;;;;;;;10.07;4.18;;;;;;;23.03;52.54;101310.13;4954325;29;20035;-73
2023/07/16 11:41:57;;;;;;;10.05;5.03;;;;;;;23.30;53.09;101327.34;4954310;29;20027;-74
2023/07/16 11:44:22;;;;;;;9.13;4.43;;;;;;;23.63;51.20;101328.16;4954038;29;20027;-74
2023/07/16 11:46:48;;;;;;;8.30;4.60;;;;;;;23.83;51.21;101321.47;4954128;29;20023;-74
2023/07/16 11:49:13;;;;;;;13.60;4.47;;;;;;;23.83;50.17;101299.56;4954142;29;20031;-74
2023/07/16 11:51:39;;;;;;;11.20;4.72;;;;;;;23.67;50.20;101321.53;4954301;29;20170;-75
2023/07/16 11:54:04;;;;;;;8.15;4.15;;;;;;;23.46;50.67;101332.59;4954205;29;20045;-77